シドニー の空港の天気 - METARとTAF

シドニー国際空港 ( YSSY / SYD ) - オーストラリア ニューサウスウェールズ州、Mascot
飛行場実況気象(Metar)
観測時間06/20 02:00 AEST (06/19 16:00 UTC)
風向・風速南南東 9m/s
視程10km以上
天気現象弱い霧雨
少しの雲 雲底高度 550m
全天の4割程度の雲 雲底高度 1100m
全天の8割程度の雲 雲底高度 1680m
気温14℃
湿度88%
気圧1025hPa
METARYSSY 191600Z 15018KT 9999 -DZ FEW018 SCT036 BKN055 14/12 Q1025 INTER 1600/1900 5000 SHRA BKN015
過去の天気等 Google飛行場航空写真 Wunderground天気予報

過去48時間のMETAR

飛行場予報(TAF)
発表時間: 6/20 00:28 AEST (6/19 14:28 UTC)
予報対象時間: 20日0時 AEST ~ 21日4時 AEST
風向・風速南 8m/s 瞬間風速 13m/s
視程10km以上
天気現象弱いしゅう雨
全天の4割程度の雲 雲底高度 910m
全天の8割程度の雲 雲底高度 1370m
20日3時 AEST から
風向・風速南西 7m/s
視程10km以上
天気現象弱いしゅう雨
全天の4割程度の雲 雲底高度 910m
全天の8割程度の雲 雲底高度 1370m
20日9時 AEST から
風向・風速南 8m/s
視程10km以上
少しの雲 雲底高度 910m
全天の4割程度の雲 雲底高度 1370m
20日20時 AEST から
風向・風速南西 4m/s
視程10km以上
少しの雲 雲底高度 910m
全天の8割程度の雲 雲底高度 1220m
TAF AMD YSSY 191428Z 1914/2018 17015G25KT 9999 -SHRA SCT030 BKN045
FM191700 22014KT 9999 -SHRA SCT030 BKN045
FM192300 17015KT 9999 FEW030 SCT045
FM201000 23008KT 9999 FEW030 BKN040 INTER 1914/1922 18025G35KT SHRA BKN015